Accueil
METAR-TAF:

METAR-TAF

Aéroports :

Aéroport de Londres-Luton

Luton, Angleterre

latitude: 51-52N, longitude: 000-22W, altitude: 160 m

Observation

Le bulletin a été fait il y a 24 minutes, à 03:50 UTC
Vent 6 kt de ouest/nord-ouest
Température 14°C
Humidité 72%
Pression 1027 hPa
Visibilité 10 km ou plus
Nuages fragmentés à une hauteur de 1500 ft
Ciel couvert à une hauteur de 2200 ft

METAR: EGGW 060350Z AUTO 30006KT 9999 BKN015 OVC022 14/09 Q1027

Heure: 05:14 (04:14 UTC)

Prévision

Le bulletin a été fait il y a 5 heures et 20 minutes, à 22:54 UTC
Prévision valable du 06 à 00 UTC au 06 à 24 UTC
Vent 8 kt de nord-ouest
Visibilité 10 km ou plus
Quelques nuages à une hauteur de 4500 ft
Temporairement
du 06 à 05 UTC au 06 à 09 UTC
Nuages fragmentés à une hauteur de 1200 ft

TAF: EGGW 052254Z 0600/0624 31008KT 9999 FEW045 TEMPO 0605/0609 BKN012

Observations et prévisions météorologiques de plus de 4000 aéroports (messages METAR et TAF).

Les stations disponibles sont représentées par des disques jaunes et rouges sur la carte.

Passer la souris dessus pour voir le nom de la station.

Cliquer dessus pour voir les observations et prévisions météorologiques.

Pour changer de carte: cliquez sur les boutons verts avec une croix noire pour zoomer, sur le bouton vert avec un tiret pour effectuer un zoom arrière, ou sur les flèches vertes pour les cartes adjacentes.


METAR-TAF: